createdAt,value
2022-12-08T08:09:46.099Z,0
2022-12-08T08:10:51.255Z,4284
2022-12-08T08:11:56.355Z,4198
2022-12-08T08:13:01.531Z,5185
2022-12-08T08:14:06.735Z,5601
2022-12-08T08:15:12.892Z,5661
2022-12-08T08:16:19.095Z,5525
2022-12-08T08:17:24.285Z,5229
2022-12-08T08:18:29.344Z,5642
2022-12-08T08:19:35.516Z,5097
2022-12-08T08:20:40.746Z,4974
2022-12-08T08:21:46.841Z,5050
2022-12-08T08:22:51.989Z,4766
2022-12-08T08:23:58.106Z,4243
2022-12-08T08:25:04.231Z,5282
2022-12-08T08:26:10.331Z,5544
2022-12-08T08:27:16.383Z,5728
2022-12-08T08:28:22.597Z,5635
2022-12-08T08:29:28.627Z,5550
2022-12-08T08:30:34.862Z,5447
2022-12-08T08:31:41.025Z,5437
2022-12-08T08:32:47.158Z,5332
2022-12-08T08:33:53.260Z,5231
2022-12-08T08:34:59.323Z,5557
2022-12-08T08:36:05.359Z,5398
2022-12-08T08:37:11.479Z,5174
2022-12-08T08:38:17.664Z,5098
2022-12-08T08:39:23.888Z,5346
2022-12-08T08:40:29.998Z,5190
2022-12-08T08:41:36.079Z,4939
2022-12-08T08:42:42.176Z,5033
2022-12-08T08:43:48.186Z,4878
2022-12-08T08:44:54.348Z,4835
2022-12-08T08:46:00.555Z,4607
2022-12-08T08:47:06.575Z,4233
2022-12-08T08:48:12.659Z,3977
2022-12-08T08:49:18.831Z,3760
2022-12-08T08:50:24.976Z,3439
2022-12-08T08:51:31.080Z,3158
2022-12-08T08:52:37.107Z,3111
2022-12-08T08:53:43.259Z,3297
2022-12-08T08:54:49.359Z,3597
2022-12-08T08:55:55.564Z,3753
2022-12-08T08:57:01.661Z,3789
2022-12-08T08:58:07.768Z,3787
2022-12-08T08:59:13.919Z,3728
2022-12-08T09:00:19.916Z,3521
2022-12-08T09:01:26.031Z,3247
2022-12-08T09:02:32.218Z,3109
2022-12-08T09:03:38.388Z,3052
2022-12-08T09:04:43.571Z,3089
2022-12-08T09:05:49.698Z,3171
2022-12-08T09:06:55.817Z,3206
2022-12-08T09:08:01.983Z,3157
2022-12-08T09:09:08.076Z,3146
2022-12-08T09:10:14.191Z,3073
2022-12-08T09:11:20.217Z,3012
2022-12-08T09:12:26.294Z,3012
2022-12-08T09:13:32.564Z,3191
2022-12-08T09:14:38.624Z,3354
2022-12-08T09:15:44.727Z,3546
2022-12-08T09:16:50.802Z,3692
2022-12-08T09:17:56.867Z,3576
2022-12-08T09:19:02.987Z,3350
2022-12-08T09:20:09.138Z,3289
2022-12-08T09:21:15.235Z,3349
2022-12-08T09:22:21.409Z,3375
2022-12-08T09:23:27.496Z,3430
2022-12-08T09:24:33.625Z,3408
2022-12-08T09:25:39.805Z,3265
2022-12-08T09:26:45.925Z,3341
2022-12-08T09:27:51.973Z,3503
2022-12-08T09:28:58.064Z,3888
2022-12-08T09:30:04.204Z,4448
2022-12-08T09:31:10.340Z,4986
2022-12-08T09:32:16.619Z,5530
2022-12-08T09:33:21.626Z,5666
2022-12-08T09:34:27.832Z,5750
2022-12-08T09:35:33.867Z,5689
2022-12-08T09:36:39.941Z,5508
2022-12-08T09:37:46.200Z,5353
2022-12-08T09:38:52.259Z,5247
2022-12-08T09:39:58.303Z,4764
2022-12-08T09:41:04.488Z,4186
2022-12-08T09:42:10.633Z,3690
2022-12-08T09:43:16.609Z,3523
